Time;durP1;ratioP1;P1;durP2;ratioP2;P2;SDS_P1;SDS_P2;PMS_P1;PMS_P2;Temp;Humidity;BMP_temperature;BMP_pressure;BME280_temperature;BME280_humidity;BME280_pressure;Samples;Min_cycle;Max_cycle;Signal;HPM_P1;HPM_P2
2022/03/11 00:00:05;;;;;;;23.25;12.30;;;;;;;0.37;61.40;96089.81;5071735;28;24895;-75
2022/03/11 00:02:31;;;;;;;25.58;15.40;;;;;;;0.36;61.32;96086.44;5072143;28;24492;-75
2022/03/11 00:04:58;;;;;;;17.83;12.35;;;;;;;0.37;60.72;96084.72;5071630;28;24967;-75
2022/03/11 00:07:25;;;;;;;19.50;12.32;;;;;;;0.39;61.14;96091.47;5071969;28;24430;-75
2022/03/11 00:09:51;;;;;;;19.15;13.52;;;;;;;0.44;61.25;96082.03;5071710;28;24450;-75
2022/03/11 00:12:18;;;;;;;19.43;13.67;;;;;;;0.39;60.44;96080.44;5070725;28;24425;-75
2022/03/11 00:14:45;;;;;;;23.48;13.25;;;;;;;0.28;60.65;96080.63;5071693;28;24427;-75
2022/03/11 00:17:12;;;;;;;17.73;14.00;;;;;;;0.19;61.03;96073.16;5071795;28;24431;-75
2022/03/11 00:19:39;;;;;;;22.63;12.50;;;;;;;0.16;61.16;96081.69;5071462;28;24434;-74
2022/03/11 00:22:05;;;;;;;19.17;11.77;;;;;;;0.12;60.58;96074.13;5071637;28;24430;-75
2022/03/11 00:24:32;;;;;;;18.20;13.00;;;;;;;0.08;61.23;96075.91;5071413;28;24423;-74
2022/03/11 00:26:58;;;;;;;16.77;13.38;;;;;;;-0.05;61.37;96077.78;5071428;28;24476;-75
2022/03/11 00:29:25;;;;;;;13.10;11.40;;;;;;;-0.11;62.13;96069.41;5071268;28;24426;-75
2022/03/11 00:31:51;;;;;;;14.25;12.70;;;;;;;-0.09;61.65;96075.31;5071208;28;24447;-75
2022/03/11 00:34:19;;;;;;;14.63;11.60;;;;;;;-0.01;61.55;96074.31;5071383;28;24510;-75
2022/03/11 00:36:45;;;;;;;21.75;13.30;;;;;;;0.08;60.86;96075.06;5071054;28;24797;-74
2022/03/11 00:39:12;;;;;;;18.73;12.20;;;;;;;-0.02;63.70;96076.91;5070683;28;24948;-74
2022/03/11 00:41:39;;;;;;;17.55;12.30;;;;;;;-0.31;66.31;96074.81;5070629;28;24439;-73
2022/03/11 00:44:06;;;;;;;13.53;10.37;;;;;;;-0.30;66.58;96079.91;5071229;28;24422;-74
2022/03/11 00:46:32;;;;;;;12.40;9.93;;;;;;;-0.16;66.53;96083.91;5071143;28;24414;-74
2022/03/11 00:48:59;;;;;;;13.00;9.25;;;;;;;-0.08;66.21;96082.91;5070964;28;24472;-73
2022/03/11 00:51:27;;;;;;;13.13;9.63;;;;;;;-0.02;65.72;96077.75;5070830;28;24820;-73
2022/03/11 00:53:53;;;;;;;11.13;9.23;;;;;;;0.06;65.14;96075.06;5070830;28;24423;-73
2022/03/11 00:56:20;;;;;;;19.30;10.27;;;;;;;0.13;65.28;96076.66;5070632;28;24430;-74
2022/03/11 00:58:46;;;;;;;13.32;8.98;;;;;;;0.16;65.08;96071.50;5070941;28;24434;-74
2022/03/11 01:01:13;;;;;;;10.98;9.38;;;;;;;0.18;65.39;96072.28;5070635;28;24518;-74
2022/03/11 01:03:39;;;;;;;10.63;9.52;;;;;;;0.15;65.30;96068.97;5070790;28;24431;-74
2022/03/11 01:06:06;;;;;;;12.88;9.07;;;;;;;0.15;65.71;96066.41;5070634;28;24472;-74
2022/03/11 01:08:33;;;;;;;11.50;9.68;;;;;;;0.14;65.41;96068.13;5070233;28;24422;-74
2022/03/11 01:11:00;;;;;;;15.17;11.43;;;;;;;0.02;65.60;96053.06;5070641;28;24490;-74
2022/03/11 01:13:26;;;;;;;12.48;10.32;;;;;;;0.01;65.56;96059.03;5070690;28;24418;-74
2022/03/11 01:15:53;;;;;;;13.57;10.15;;;;;;;0.01;66.39;96060.75;5070583;28;24985;-74
2022/03/11 01:18:19;;;;;;;11.40;9.07;;;;;;;-0.13;65.55;96063.50;5070365;28;24422;-74
2022/03/11 01:20:46;;;;;;;16.48;10.20;;;;;;;-0.36;66.80;96054.53;5070578;28;24415;-73
2022/03/11 01:23:12;;;;;;;14.38;11.23;;;;;;;-0.39;67.09;96057.13;5070316;28;24422;-74
2022/03/11 01:25:42;;;;;;;13.07;10.50;;;;;;;-0.42;67.96;96059.72;5070390;28;25050;-74
2022/03/11 01:28:08;;;;;;;12.37;9.83;;;;;;;-0.42;67.28;96057.16;5070360;28;24521;-73
2022/03/11 01:30:35;;;;;;;12.00;9.40;;;;;;;-0.53;67.44;96061.56;5070447;28;24453;-74
2022/03/11 01:33:01;;;;;;;15.45;9.38;;;;;;;-0.57;67.60;96065.03;5070391;28;24423;-74
2022/03/11 01:35:28;;;;;;;12.00;9.65;;;;;;;-0.62;67.69;96061.72;5070406;28;24426;-74
2022/03/11 01:37:55;;;;;;;12.63;9.60;;;;;;;-0.60;66.48;96058.28;5070335;28;24426;-74
2022/03/11 01:40:22;;;;;;;17.93;13.07;;;;;;;-0.74;66.64;96058.50;5070711;28;24511;-74
2022/03/11 01:42:50;;;;;;;17.73;12.63;;;;;;;-1.00;67.65;96053.75;5070762;28;24426;-73
2022/03/11 01:45:17;;;;;;;17.73;12.95;;;;;;;-1.05;67.86;96047.88;5070474;28;24422;-73
2022/03/11 01:47:44;;;;;;;21.35;14.32;;;;;;;-1.05;68.23;96052.13;5070732;28;24468;-74
2022/03/11 01:50:11;;;;;;;18.97;11.70;;;;;;;-1.30;69.13;96047.38;5070146;28;24414;-74
2022/03/11 01:52:38;;;;;;;19.90;13.00;;;;;;;-1.42;68.94;96047.50;5070637;28;24492;-74
2022/03/11 01:55:05;;;;;;;15.82;11.02;;;;;;;-1.50;69.96;96042.50;5070148;28;25014;-74
2022/03/11 01:57:35;;;;;;;17.35;11.55;;;;;;;-1.54;70.09;96043.41;5070516;28;24442;-74
2022/03/11 02:00:04;;;;;;;12.45;10.57;;;;;;;-1.56;70.31;96034.09;5070114;28;24425;-74
2022/03/11 02:02:31;;;;;;;12.63;10.03;;;;;;;-1.54;69.98;96037.47;5070496;28;24829;-74
2022/03/11 02:04:58;;;;;;;17.73;11.80;;;;;;;-1.55;69.98;96033.28;5070308;28;24425;-74
2022/03/11 02:07:25;;;;;;;11.38;10.00;;;;;;;-1.73;71.29;96034.31;5070141;28;24430;-74
2022/03/11 02:09:51;;;;;;;14.85;9.98;;;;;;;-1.52;70.08;96035.75;5070066;28;24415;-73
2022/03/11 02:12:28;;;;;;;15.35;11.15;;;;;;;-1.67;70.84;96046.91;5070230;28;24449;-74
2022/03/11 02:14:55;;;;;;;15.70;11.10;;;;;;;-1.76;71.49;96044.50;5069999;28;24458;-74
2022/03/11 02:17:23;;;;;;;17.63;11.43;;;;;;;-1.84;72.15;96034.41;5069950;28;24492;-73
2022/03/11 02:19:49;;;;;;;12.65;10.73;;;;;;;-1.85;72.85;96042.91;5069699;28;24947;-74
2022/03/11 02:22:17;;;;;;;15.63;11.00;;;;;;;-1.80;72.15;96033.53;5070195;28;24421;-73
2022/03/11 02:24:44;;;;;;;17.17;10.03;;;;;;;-1.65;71.78;96036.75;5069949;28;24419;-74
2022/03/11 02:27:11;;;;;;;15.05;10.65;;;;;;;-1.46;71.06;96034.00;5070025;28;24532;-74
2022/03/11 02:29:37;;;;;;;15.43;11.68;;;;;;;-1.35;70.63;96038.94;5070195;28;24954;-74
2022/03/11 02:32:05;;;;;;;16.20;11.82;;;;;;;-1.23;70.78;96036.25;5069545;28;24446;-73
2022/03/11 02:34:32;;;;;;;14.82;11.70;;;;;;;-1.13;70.76;96031.06;5071112;28;24433;-74
2022/03/11 02:36:58;;;;;;;13.38;11.57;;;;;;;-1.07;71.32;96031.00;5073626;28;25053;-73
2022/03/11 02:39:25;;;;;;;16.17;11.75;;;;;;;-1.07;70.56;96021.66;5073382;28;24437;-74
2022/03/11 02:41:52;;;;;;;16.88;13.00;;;;;;;-1.11;70.17;96022.56;5073303;28;24431;-74
2022/03/11 02:44:19;;;;;;;14.75;12.25;;;;;;;-1.09;69.88;96030.16;5073246;28;24823;-74
2022/03/11 02:46:45;;;;;;;16.55;11.73;;;;;;;-1.12;69.53;96022.56;5073542;28;24434;-74
2022/03/11 02:49:13;;;;;;;13.27;11.07;;;;;;;-1.09;70.27;96022.53;5073464;28;24427;-74
2022/03/11 02:51:40;;;;;;;19.83;11.80;;;;;;;-1.12;69.52;96018.31;5073098;28;24968;-74
2022/03/11 02:54:06;;;;;;;17.27;11.05;;;;;;;-1.16;70.14;96015.84;5073287;28;24421;-74
2022/03/11 02:56:33;;;;;;;13.48;10.73;;;;;;;-1.12;70.32;96014.94;5073023;28;24415;-74
2022/03/11 02:59:00;;;;;;;13.38;8.75;;;;;;;-1.02;70.57;96011.41;5072931;28;24955;-74
2022/03/11 03:01:27;;;;;;;10.43;8.75;;;;;;;-1.03;71.03;96007.22;5073031;28;24437;-74
2022/03/11 03:03:53;;;;;;;13.27;9.93;;;;;;;-1.08;70.99;96002.16;5073223;28;24425;-74
2022/03/11 03:06:20;;;;;;;16.17;10.35;;;;;;;-1.05;70.83;95994.50;5073014;28;24422;-74
2022/03/11 03:08:46;;;;;;;13.23;10.15;;;;;;;-1.08;70.60;96002.16;5072771;28;24979;-74
2022/03/11 03:11:13;;;;;;;16.48;10.55;;;;;;;-1.14;71.46;96001.44;5072869;28;24996;-74
2022/03/11 03:13:39;;;;;;;20.13;15.90;;;;;;;-1.20;71.17;95999.78;5072660;28;24419;-74
2022/03/11 03:16:07;;;;;;;19.20;13.25;;;;;;;-1.14;71.32;95994.63;5072573;28;24974;-74
2022/03/11 03:18:34;;;;;;;14.68;11.07;;;;;;;-1.23;71.22;96004.91;5072702;28;24468;-74
2022/03/11 03:21:00;;;;;;;15.18;10.93;;;;;;;-1.26;71.24;96003.28;5072670;28;24472;-74
2022/03/11 03:23:27;;;;;;;14.52;10.65;;;;;;;-1.38;71.75;96005.94;5072689;28;24827;-74
2022/03/11 03:25:54;;;;;;;15.60;10.73;;;;;;;-1.30;71.54;96005.84;5072453;28;24959;-73
2022/03/11 03:28:21;;;;;;;11.05;9.88;;;;;;;-1.35;72.09;96000.84;5072735;28;25024;-74
2022/03/11 03:30:47;;;;;;;12.85;9.32;;;;;;;-1.38;72.58;95994.94;5072436;28;24550;-73
2022/03/11 03:33:15;;;;;;;11.20;9.10;;;;;;;-1.32;72.89;95988.09;5072638;28;24508;-74
2022/03/11 03:35:42;;;;;;;13.48;8.35;;;;;;;-1.33;72.62;95991.50;5072109;28;24422;-73
2022/03/11 03:38:08;;;;;;;12.27;9.15;;;;;;;-1.49;72.15;95987.47;5072185;28;24419;-74
2022/03/11 03:40:35;;;;;;;9.88;8.65;;;;;;;-1.65;73.05;95996.13;5071894;28;24439;-74
2022/03/11 03:43:01;;;;;;;12.32;8.65;;;;;;;-1.64;73.58;95996.09;5072519;28;24422;-73
2022/03/11 03:45:28;;;;;;;9.85;8.80;;;;;;;-1.57;73.30;95996.88;5072291;28;24414;-73
2022/03/11 03:47:55;;;;;;;10.70;8.43;;;;;;;-1.56;73.17;95998.53;5072118;28;24975;-74
2022/03/11 03:50:23;;;;;;;10.98;8.45;;;;;;;-1.59;73.49;95996.91;5071973;28;24510;-74
2022/03/11 03:52:50;;;;;;;11.00;8.20;;;;;;;-1.50;73.21;95998.50;5071943;28;24484;-74
2022/03/11 03:55:16;;;;;;;14.35;8.30;;;;;;;-1.61;72.74;96001.16;5071811;28;24426;-73
2022/03/11 03:57:43;;;;;;;12.50;10.43;;;;;;;-1.78;72.50;95998.81;5072351;28;24460;-74
2022/03/11 04:00:10;;;;;;;13.18;10.13;;;;;;;-1.98;72.96;95993.09;5071795;28;24423;-74
2022/03/11 04:02:37;;;;;;;13.50;9.60;;;;;;;-2.13;74.22;95991.56;5071938;28;24411;-74
2022/03/11 04:05:04;;;;;;;11.02;8.93;;;;;;;-2.02;73.70;95992.28;5071722;28;24461;-74
2022/03/11 04:07:32;;;;;;;13.65;9.57;;;;;;;-1.86;73.61;95990.41;5071713;28;24449;-74
2022/03/11 04:09:59;;;;;;;12.48;9.75;;;;;;;-1.98;72.66;95995.63;5071137;28;24425;-73
2022/03/11 04:12:25;;;;;;;14.52;9.63;;;;;;;-1.99;73.51;95982.09;5071696;28;24545;-74
2022/03/11 04:14:51;;;;;;;13.43;9.90;;;;;;;-1.90;72.90;95991.31;5071815;28;24788;-74
2022/03/11 04:17:18;;;;;;;13.88;11.55;;;;;;;-1.85;72.38;95987.03;5071577;28;24990;-73
2022/03/11 04:19:44;;;;;;;20.90;14.93;;;;;;;-1.92;71.90;95984.59;5071323;28;24425;-74
2022/03/11 04:22:11;;;;;;;25.13;15.73;;;;;;;-1.98;71.79;95982.94;5071434;28;24538;-73
2022/03/11 04:24:39;;;;;;;28.27;16.52;;;;;;;-1.97;71.95;95990.53;5071689;28;24789;-73
2022/03/11 04:27:05;;;;;;;30.23;17.75;;;;;;;-1.90;71.07;95993.84;5071506;28;24415;-74
2022/03/11 04:29:32;;;;;;;24.90;17.38;;;;;;;-1.87;70.12;95986.22;5071185;28;24417;-74
2022/03/11 04:31:58;;;;;;;25.60;14.15;;;;;;;-1.99;71.03;95988.88;5071174;28;24519;-74
2022/03/11 04:34:26;;;;;;;18.17;12.05;;;;;;;-2.11;72.33;95994.06;5071446;28;24476;-74
2022/03/11 04:36:52;;;;;;;17.33;11.98;;;;;;;-2.13;71.27;95995.78;5071012;28;24426;-74
2022/03/11 04:39:18;;;;;;;14.95;11.70;;;;;;;-2.20;72.27;96003.44;5071122;28;24944;-74
2022/03/11 04:41:46;;;;;;;15.13;11.35;;;;;;;-2.23;72.14;96000.09;5070887;28;24836;-73
2022/03/11 04:44:13;;;;;;;16.08;11.27;;;;;;;-2.20;72.00;95997.53;5071219;28;24430;-74
2022/03/11 04:46:39;;;;;;;17.65;11.82;;;;;;;-2.24;71.99;95991.66;5070887;28;25132;-74
2022/03/11 04:49:06;;;;;;;18.17;11.00;;;;;;;-2.16;71.57;95986.50;5071062;28;24422;-74
2022/03/11 04:51:32;;;;;;;13.93;10.32;;;;;;;-2.15;72.06;95985.69;5069424;28;24473;-74
2022/03/11 04:53:59;;;;;;;17.45;11.48;;;;;;;-2.14;72.25;95979.72;5070961;28;24978;-74
2022/03/11 04:56:26;;;;;;;17.03;11.53;;;;;;;-2.16;72.29;95991.59;5070919;28;24429;-73
2022/03/11 04:58:54;;;;;;;17.15;12.48;;;;;;;-2.14;72.00;95986.50;5070206;28;24458;-74
2022/03/11 05:01:21;;;;;;;14.25;11.68;;;;;;;-2.28;71.95;95987.47;5070792;28;24427;-74
2022/03/11 05:03:47;;;;;;;18.10;11.80;;;;;;;-2.41;72.71;95997.72;5070797;28;24419;-74
2022/03/11 05:06:14;;;;;;;17.27;12.98;;;;;;;-2.33;72.89;95996.81;5070798;28;24423;-74
2022/03/11 05:08:40;;;;;;;16.02;11.25;;;;;;;-2.28;72.94;95996.78;5070797;28;24887;-73
2022/03/11 05:11:07;;;;;;;15.98;11.68;;;;;;;-2.39;73.93;96001.94;5070721;28;24430;-73
2022/03/11 05:13:33;;;;;;;14.25;11.02;;;;;;;-2.34;73.63;95990.06;5070766;28;24939;-74
2022/03/11 05:16:01;;;;;;;13.23;9.68;;;;;;;-2.31;74.52;95991.72;5070817;28;24422;-74
2022/03/11 05:18:28;;;;;;;12.20;9.90;;;;;;;-2.33;73.44;95990.91;5070482;28;24422;-74
2022/03/11 05:20:54;;;;;;;14.98;9.82;;;;;;;-2.33;74.13;95990.91;5070738;28;24426;-74
2022/03/11 05:23:21;;;;;;;17.05;11.60;;;;;;;-2.47;74.38;95993.56;5070533;28;24998;-74
2022/03/11 05:25:48;;;;;;;15.25;11.60;;;;;;;-2.58;75.32;95990.28;5070443;28;24445;-75
2022/03/11 05:28:15;;;;;;;16.33;13.07;;;;;;;-2.54;75.19;95990.22;5070427;28;24800;-73
2022/03/11 05:30:42;;;;;;;13.35;9.65;;;;;;;-2.62;74.34;95996.22;5070495;28;24957;-73
2022/03/11 05:33:09;;;;;;;12.68;9.48;;;;;;;-2.75;74.75;95991.22;5070394;28;25010;-74
2022/03/11 05:35:36;;;;;;;11.80;9.77;;;;;;;-2.90;76.60;95990.50;5070311;28;24418;-73
2022/03/11 05:38:02;;;;;;;11.68;9.68;;;;;;;-2.83;76.65;95995.53;5069930;28;24431;-73
2022/03/11 05:40:29;;;;;;;15.07;10.15;;;;;;;-2.75;76.08;95995.47;5071083;28;24468;-75
2022/03/11 05:42:55;;;;;;;12.93;10.23;;;;;;;-2.75;76.38;95995.47;5072212;28;24430;-75
2022/03/11 05:45:22;;;;;;;18.10;12.03;;;;;;;-2.82;76.08;96003.97;5072553;28;24422;-74
2022/03/11 05:47:48;;;;;;;29.77;17.20;;;;;;;-2.92;76.53;96008.28;5070563;28;24430;-75
2022/03/11 05:50:16;;;;;;;24.85;15.85;;;;;;;-2.91;76.78;95997.28;5070109;28;24427;-74
2022/03/11 05:52:44;;;;;;;26.70;14.20;;;;;;;-2.85;76.01;96004.84;5070126;28;24543;-74
2022/03/11 05:55:11;;;;;;;23.17;13.80;;;;;;;-2.85;76.54;95999.78;5070171;28;24429;-74
2022/03/11 05:57:38;;;;;;;16.55;12.50;;;;;;;-2.78;76.83;96006.50;5070311;28;24421;-74
2022/03/11 06:00:06;;;;;;;25.85;14.00;;;;;;;-2.68;75.95;96010.63;5069912;28;24418;-74
2022/03/11 06:02:33;;;;;;;17.70;12.32;;;;;;;-2.66;76.81;96007.25;5070071;28;24843;-74
2022/03/11 06:04:59;;;;;;;19.92;12.40;;;;;;;-2.54;77.29;96018.13;5069928;28;24484;-74
2022/03/11 06:07:27;;;;;;;18.42;12.30;;;;;;;-2.41;77.21;96008.75;5069950;28;24419;-74
2022/03/11 06:09:54;;;;;;;16.05;9.90;;;;;;;-2.41;75.59;96015.47;5071403;28;24426;-74
2022/03/11 06:12:22;;;;;;;14.68;9.70;;;;;;;-2.62;78.28;96013.97;5073673;28;24454;-74
2022/03/11 06:14:48;;;;;;;10.45;8.80;;;;;;;-2.50;78.57;96014.72;5073728;28;24422;-74
2022/03/11 06:17:15;;;;;;;27.20;16.25;;;;;;;-2.39;78.80;96016.31;5073936;28;24457;-74
2022/03/11 06:19:41;;;;;;;31.75;20.25;;;;;;;-2.26;79.00;96018.75;5073604;28;24468;-74
2022/03/11 06:22:08;;;;;;;25.95;18.30;;;;;;;-2.10;78.99;96019.44;5073752;28;24773;-75
2022/03/11 06:24:35;;;;;;;29.00;18.83;;;;;;;-1.89;78.46;96008.25;5074457;28;24796;-70
2022/03/11 06:27:02;;;;;;;25.88;21.70;;;;;;;-1.74;78.07;96012.31;5073975;28;24956;-75
2022/03/11 06:29:28;;;;;;;25.38;18.20;;;;;;;-1.61;77.40;96011.31;5073254;28;24422;-75
2022/03/11 06:31:55;;;;;;;26.20;19.23;;;;;;;-1.40;76.87;96009.38;5073532;28;24561;-74
2022/03/11 06:34:22;;;;;;;26.17;17.60;;;;;;;-1.32;75.84;96005.88;5073554;28;24423;-74
2022/03/11 06:36:48;;;;;;;18.60;14.98;;;;;;;-1.18;75.11;96003.16;5073512;28;24433;-74
2022/03/11 06:39:14;;;;;;;18.10;13.32;;;;;;;-0.96;75.13;96001.19;5073137;28;24496;-75
2022/03/11 06:41:42;;;;;;;14.20;9.57;;;;;;;-0.78;74.17;96000.03;5073230;28;24492;-75
2022/03/11 06:44:09;;;;;;;14.13;9.55;;;;;;;-0.69;73.40;96001.63;5073141;28;24434;-74
2022/03/11 06:46:35;;;;;;;19.38;11.50;;;;;;;-0.67;75.32;95990.56;5073455;28;24421;-74
2022/03/11 06:49:02;;;;;;;16.60;11.98;;;;;;;-0.54;73.88;96001.41;5072988;28;24438;-75
2022/03/11 06:51:28;;;;;;;16.05;9.60;;;;;;;-0.76;72.29;96003.41;5072957;28;24819;-75
2022/03/11 06:53:55;;;;;;;16.17;9.73;;;;;;;-0.93;73.68;95998.56;5072996;28;24423;-75
2022/03/11 06:56:21;;;;;;;13.07;9.07;;;;;;;-0.95;73.70;96007.94;5072411;28;24472;-74
2022/03/11 06:58:49;;;;;;;19.80;10.82;;;;;;;-0.88;72.67;96001.06;5072765;28;24476;-74
2022/03/11 07:01:16;;;;;;;11.02;8.95;;;;;;;-0.98;74.93;96011.34;5073181;28;24454;-74
2022/03/11 07:03:43;;;;;;;11.60;8.45;;;;;;;-0.58;73.93;96017.56;5073020;28;24535;-75
2022/03/11 07:06:09;;;;;;;15.82;10.68;;;;;;;-0.42;72.09;96011.38;5072214;28;24426;-75
2022/03/11 07:08:36;;;;;;;10.30;8.63;;;;;;;-0.40;71.55;96012.19;5072175;28;24560;-74
2022/03/11 07:11:02;;;;;;;10.87;9.00;;;;;;;-0.44;72.05;96023.28;5072521;28;24518;-74
2022/03/11 07:13:30;;;;;;;14.55;9.57;;;;;;;-0.49;72.02;96014.88;5072880;28;24546;-74
2022/03/11 07:15:58;;;;;;;16.90;10.43;;;;;;;-0.63;72.87;96019.31;5072782;28;24488;-74
2022/03/11 07:18:25;;;;;;;12.00;9.85;;;;;;;-0.58;72.38;96020.13;5072354;28;24427;-75
2022/03/11 07:20:51;;;;;;;11.95;10.05;;;;;;;-0.55;72.63;96023.44;5072283;28;24426;-75
2022/03/11 07:23:18;;;;;;;13.27;9.37;;;;;;;-0.49;71.84;96015.72;5072532;28;24485;-75
2022/03/11 07:25:45;;;;;;;12.30;10.40;;;;;;;-0.67;72.98;96025.31;5072425;28;24472;-75
2022/03/11 07:28:12;;;;;;;14.10;9.45;;;;;;;-0.65;73.01;96021.06;5072441;28;24421;-75
2022/03/11 07:30:38;;;;;;;17.52;10.23;;;;;;;-0.33;73.05;96016.31;5072368;28;24450;-74
2022/03/11 07:33:07;;;;;;;16.00;9.65;;;;;;;0.27;71.81;96014.44;5072175;28;24979;-74
2022/03/11 07:35:34;;;;;;;13.55;9.77;;;;;;;0.75;69.35;96015.19;5072476;28;24469;-75
2022/03/11 07:38:00;;;;;;;14.38;10.20;;;;;;;1.02;67.32;96020.59;5072168;28;24426;-75
2022/03/11 07:40:27;;;;;;;11.00;8.57;;;;;;;1.34;66.63;96022.44;5072516;28;24431;-75
2022/03/11 07:42:53;;;;;;;11.88;8.25;;;;;;;1.72;66.85;96016.41;5102181;22;24458;-68
2022/03/11 07:45:20;;;;;;;11.48;8.85;;;;;;;2.12;65.01;96003.50;5080237;28;24434;-70
2022/03/11 07:47:46;;;;;;;13.02;9.93;;;;;;;2.40;63.37;96006.16;5071491;28;24431;-69
2022/03/11 07:50:14;;;;;;;12.25;9.80;;;;;;;2.65;62.44;96003.75;5069818;28;24796;-70
2022/03/11 07:52:41;;;;;;;11.63;10.30;;;;;;;2.85;60.37;96007.47;5061594;28;24502;-71
2022/03/11 07:55:10;;;;;;;16.65;12.07;;;;;;;2.72;60.96;96003.59;5050197;28;24891;-71
2022/03/11 07:57:37;;;;;;;12.70;10.32;;;;;;;2.69;60.64;95996.84;5050206;28;24430;-71
2022/03/11 08:00:06;;;;;;;12.93;10.50;;;;;;;3.12;61.47;96006.69;5053338;28;24445;-70
2022/03/11 08:02:32;;;;;;;15.75;11.48;;;;;;;3.09;61.05;95996.53;5068667;28;24430;-71
2022/03/11 08:04:59;;;;;;;15.18;11.90;;;;;;;3.53;60.31;95994.31;5071585;28;25132;-72
2022/03/11 08:07:27;;;;;;;13.53;11.03;;;;;;;3.69;58.01;95991.28;5089750;28;24429;-72
2022/03/11 08:09:53;;;;;;;16.30;11.45;;;;;;;3.27;59.88;95990.03;5091855;28;24780;-72
2022/03/11 08:12:20;;;;;;;14.32;11.82;;;;;;;3.17;58.76;95987.78;5091773;28;24453;-72
2022/03/11 08:14:47;;;;;;;17.37;12.07;;;;;;;3.10;60.29;95985.41;5091774;28;24438;-72
2022/03/11 08:17:14;;;;;;;15.18;10.77;;;;;;;3.63;58.60;95985.47;5091980;28;24428;-72
2022/03/11 08:19:40;;;;;;;12.80;10.10;;;;;;;4.01;57.27;95985.94;5075104;28;24427;-72
2022/03/11 08:22:07;;;;;;;16.35;10.57;;;;;;;4.42;56.54;95988.81;5071321;28;24950;-72
2022/03/11 08:24:35;;;;;;;13.88;9.18;;;;;;;4.91;54.54;95994.72;5071230;28;25042;-72
2022/03/11 08:27:01;;;;;;;12.30;9.48;;;;;;;4.80;53.92;95989.16;5071258;28;24809;-72
2022/03/11 08:29:32;;;;;;;11.95;9.55;;;;;;;5.12;53.72;95987.09;5071034;28;24426;-72
2022/03/11 08:32:00;;;;;;;13.95;10.15;;;;;;;5.40;53.13;95987.72;5070787;28;24424;-72
2022/03/11 08:34:26;;;;;;;15.35;10.57;;;;;;;5.39;52.14;95980.94;5070934;28;24537;-72
2022/03/11 08:36:53;;;;;;;13.57;10.32;;;;;;;5.65;51.45;95984.22;5071255;28;24422;-72
2022/03/11 08:39:19;;;;;;;11.73;9.10;;;;;;;5.70;51.53;95992.56;5070875;28;24947;-72
2022/03/11 08:41:47;;;;;;;14.40;9.43;;;;;;;5.88;50.31;95978.13;5070873;28;24411;-72
2022/03/11 08:44:13;;;;;;;8.93;7.82;;;;;;;5.70;50.39;95988.25;5070979;28;24513;-72
2022/03/11 08:46:40;;;;;;;11.82;8.40;;;;;;;5.89;49.81;95972.91;5067418;28;24442;-72
2022/03/11 08:49:07;;;;;;;13.63;8.43;;;;;;;6.24;48.19;95975.81;5058303;28;24824;-72
2022/03/11 08:51:34;;;;;;;11.63;8.27;;;;;;;6.35;47.91;95972.78;5059389;28;24457;-73
2022/03/11 08:54:00;;;;;;;14.00;8.85;;;;;;;5.87;49.06;95979.88;5060216;28;24480;-73
2022/03/11 08:56:27;;;;;;;10.85;9.00;;;;;;;5.53;49.71;95977.84;5058177;28;24812;-72
2022/03/11 08:58:54;;;;;;;10.73;8.35;;;;;;;6.01;50.18;95977.59;5059252;28;24438;-72
2022/03/11 09:01:21;;;;;;;12.40;8.50;;;;;;;6.03;49.25;95970.66;5057742;28;24427;-73
2022/03/11 09:03:48;;;;;;;13.70;9.77;;;;;;;6.37;49.46;95971.78;5060156;28;24431;-72
2022/03/11 09:06:15;;;;;;;9.93;8.93;;;;;;;6.71;49.00;95968.59;5059512;28;24436;-72
2022/03/11 09:08:42;;;;;;;10.38;9.38;;;;;;;7.00;46.89;95969.84;5058164;28;24454;-73
2022/03/11 09:11:09;;;;;;;11.98;8.98;;;;;;;7.17;47.36;95969.09;5059907;28;24438;-72
2022/03/11 09:13:35;;;;;;;12.40;9.45;;;;;;;6.99;46.49;95970.75;5059396;28;25062;-72
2022/03/11 09:16:05;;;;;;;12.27;9.85;;;;;;;7.36;46.97;95966.50;5057770;28;24431;-72
2022/03/11 09:18:31;;;;;;;10.68;9.48;;;;;;;7.64;45.88;95955.72;5059350;28;24525;-72
2022/03/11 09:20:58;;;;;;;12.20;9.50;;;;;;;7.70;46.79;95962.31;5059936;28;24431;-72
2022/03/11 09:23:24;;;;;;;12.05;9.65;;;;;;;7.87;45.19;95954.59;5058032;28;24431;-72
2022/03/11 09:25:51;;;;;;;14.18;10.20;;;;;;;7.12;47.18;95952.16;5060629;28;20775;-72
2022/03/11 09:28:17;;;;;;;13.48;9.95;;;;;;;7.38;47.08;95953.53;5057779;28;24519;-72
2022/03/11 09:30:44;;;;;;;14.60;9.77;;;;;;;7.13;47.30;95952.09;5061146;28;24431;-72
2022/03/11 09:33:12;;;;;;;12.40;9.70;;;;;;;6.96;47.65;95946.88;5055143;28;24859;-72
2022/03/11 09:35:38;;;;;;;12.77;10.05;;;;;;;6.91;48.49;95948.84;5059886;28;25290;-72
2022/03/11 09:38:05;;;;;;;11.68;9.20;;;;;;;7.39;47.43;95950.91;5058352;28;24432;-72
2022/03/11 09:40:32;;;;;;;21.03;11.03;;;;;;;7.25;47.47;95948.97;5058377;28;24921;-72
2022/03/11 09:43:00;;;;;;;12.60;10.45;;;;;;;7.22;47.66;95954.25;5059679;28;24431;-72
2022/03/11 09:45:27;;;;;;;14.00;9.85;;;;;;;7.08;47.99;95953.22;5062426;28;24439;-72
2022/03/11 09:47:55;;;;;;;16.60;10.23;;;;;;;6.95;48.63;95952.94;5061720;28;24442;-72
2022/03/11 09:50:23;;;;;;;13.80;10.40;;;;;;;6.90;48.80;95942.03;5063874;28;24482;-72
2022/03/11 09:52:50;;;;;;;16.45;10.15;;;;;;;7.30;48.33;95953.06;5059735;28;24825;-72
2022/03/11 09:55:16;;;;;;;13.52;9.60;;;;;;;7.42;47.43;95949.91;5063829;28;21238;-72
2022/03/11 09:57:43;;;;;;;14.65;10.25;;;;;;;7.42;47.62;95955.91;5061845;28;24462;-72
2022/03/11 10:00:10;;;;;;;12.47;9.90;;;;;;;7.48;46.92;95957.34;5066082;28;24441;-72
2022/03/11 10:02:37;;;;;;;15.88;9.85;;;;;;;7.45;47.45;95952.31;5061791;28;24446;-72
2022/03/11 10:05:03;;;;;;;15.50;9.82;;;;;;;7.49;47.32;95953.84;5063054;28;24477;-72
2022/03/11 10:07:32;;;;;;;13.68;9.75;;;;;;;7.59;47.29;95954.25;5062935;28;24439;-72
2022/03/11 10:10:12;;;;;;;16.48;11.20;;;;;;;7.52;46.91;95953.72;5061224;28;24431;-72
2022/03/11 10:12:42;;;;;;;11.00;9.73;;;;;;;7.63;46.38;95946.28;5059093;28;24442;-72
2022/03/11 10:15:09;;;;;;;11.37;10.00;;;;;;;7.87;46.87;95948.59;5061581;28;24462;-72
2022/03/11 10:17:38;;;;;;;14.02;10.07;;;;;;;8.36;46.39;95952.13;5063480;28;24434;-72
2022/03/11 10:20:07;;;;;;;13.63;10.27;;;;;;;8.00;46.07;95947.91;5057987;28;24429;-72
2022/03/11 10:22:35;;;;;;;13.68;10.13;;;;;;;8.51;47.68;95947.97;5061036;28;24431;-72
2022/03/11 10:25:06;;;;;;;14.82;11.18;;;;;;;8.43;45.17;95948.34;5057997;28;24514;-72
2022/03/11 10:27:33;;;;;;;14.95;11.00;;;;;;;8.47;45.50;95942.13;5064176;28;24453;-72
2022/03/11 10:30:04;;;;;;;12.70;10.47;;;;;;;8.57;44.58;95934.75;5058396;28;20807;-72
2022/03/11 10:32:30;;;;;;;12.77;9.70;;;;;;;8.63;45.21;95936.97;5064149;28;20735;-72
2022/03/11 10:35:09;;;;;;;13.82;10.32;;;;;;;9.14;44.62;95936.88;5066942;28;24439;-73
2022/03/11 10:37:37;;;;;;;20.17;10.37;;;;;;;9.78;43.15;95925.53;5061149;28;21364;-73
2022/03/11 10:40:11;;;;;;;16.25;11.00;;;;;;;9.84;42.26;95932.94;5058309;28;20820;-72
2022/03/11 10:42:37;;;;;;;16.45;10.88;;;;;;;10.17;42.08;95917.22;5055802;28;20707;-72
2022/03/11 10:45:06;;;;;;;15.35;10.95;;;;;;;10.40;41.55;95928.81;5062811;28;24433;-72
2022/03/11 10:47:35;;;;;;;12.50;10.70;;;;;;;10.02;41.40;95922.47;5067516;28;24426;-72
2022/03/11 10:50:03;;;;;;;12.23;10.65;;;;;;;10.01;41.05;95924.22;5059572;28;24431;-73
2022/03/11 10:52:33;;;;;;;12.32;10.52;;;;;;;10.21;41.25;95919.63;5072959;28;24429;-72
2022/03/11 10:55:16;;;;;;;13.60;10.13;;;;;;;10.33;41.79;95919.75;5067296;28;20822;-72
2022/03/11 10:57:42;;;;;;;13.55;10.50;;;;;;;10.32;40.53;95925.88;5069435;28;24468;-72
2022/03/11 11:00:22;;;;;;;20.73;10.67;;;;;;;10.66;40.81;95922.09;5072919;28;24438;-73
2022/03/11 11:02:49;;;;;;;13.18;10.77;;;;;;;11.05;43.25;95922.31;5071658;28;24533;-73
2022/03/11 11:05:16;;;;;;;14.82;10.32;;;;;;;11.06;40.90;95926.59;5068332;28;24912;-73
2022/03/11 11:07:43;;;;;;;14.88;10.93;;;;;;;11.22;41.01;95913.50;5060926;28;24433;-73
2022/03/11 11:10:12;;;;;;;13.57;10.38;;;;;;;11.56;42.63;95920.78;5070928;28;24544;-73
2022/03/11 11:12:39;;;;;;;12.77;9.82;;;;;;;11.04;39.12;95918.06;5072644;28;25247;-75
2022/03/11 11:15:07;;;;;;;18.95;10.75;;;;;;;10.89;42.62;95918.06;5072657;28;24983;-71
2022/03/11 11:17:38;;;;;;;13.85;10.25;;;;;;;10.62;41.04;95910.25;5073010;28;24426;-74
2022/03/11 11:20:07;;;;;;;16.17;11.20;;;;;;;10.45;40.76;95901.81;5072580;28;24437;-74
2022/03/11 11:22:36;;;;;;;15.43;11.32;;;;;;;10.38;40.47;95909.97;5072667;28;24423;-75